WetterOnline ( https://www.wetteronline.at )

Wetter aktuell Grosser Arber

Aktuelles Wetter: Großer Arber (1446m)

6-stündlich | Neueste Meldungen
Ortszeit Temperatur Wetter
So, 16.02. 19:00 8.2° C bewölkt
So, 16.02. 13:00 5.2° C bedeckt
So, 16.02. 7:00 3.4° C bewölkt
So, 16.02. 1:00 1.2° C bedeckt
Sa, 15.02. 19:00 1.4° C bedeckt
Sa, 15.02. 13:00 -1.4° C wolkig
Sa, 15.02. 7:00 -2.9° C Nebel
Sa, 15.02. 1:00 -3.1° C Nebel
Ortszeit Temperatur Wetter
So, 16.02. 21:00 8.4° C bewölkt
So, 16.02. 20:50 8.4° C bewölkt
So, 16.02. 20:40 8.5° C bewölkt
So, 16.02. 20:30 8.5° C wolkig
So, 16.02. 20:20 8.5° C wolkig
So, 16.02. 20:10 8.6° C wolkig
So, 16.02. 20:00 8.6° C bewölkt
So, 16.02. 19:30 8.5° C wolkig
So, 16.02. 19:00 8.2° C bewölkt
So, 16.02. 18:30 8.3° C bedeckt
So, 16.02. 18:00 8.8° C bedeckt
Ortszeit Relative Feuchte Sichtweite
So, 16.02. 19:00 26% >70 km
So, 16.02. 13:00 41% >70 km
So, 16.02. 7:00 44% >70 km
So, 16.02. 1:00 70% >70 km
Sa, 15.02. 19:00 41% >70 km
Sa, 15.02. 13:00 48% 65 km
Sa, 15.02. 7:00 99% <100 m
Sa, 15.02. 1:00 99% <100 m
Ortszeit Relative Feuchte Sichtweite
So, 16.02. 21:00 28% >70 km
So, 16.02. 20:50 28% -
So, 16.02. 20:40 27% -
So, 16.02. 20:30 26% >70 km
So, 16.02. 20:20 26% -
So, 16.02. 20:10 25% -
So, 16.02. 20:00 25% >70 km
So, 16.02. 19:30 25% -
So, 16.02. 19:00 26% >70 km
So, 16.02. 18:30 24% >70 km
So, 16.02. 18:00 23% >70 km
Ortszeit Niederschlagsmenge Niederschlagsart
So, 16.02. 19:00 0.0 l/m2 in 12 Std. -
So, 16.02. 13:00 0.0 l/m2 in 6 Std. -
So, 16.02. 7:00 0.0 l/m2 in 12 Std. -
So, 16.02. 1:00 0.0 l/m2 in 6 Std. -
Sa, 15.02. 19:00 0.0 l/m2 in 12 Std. -
Sa, 15.02. 13:00 0.0 l/m2 in 6 Std. -
Sa, 15.02. 7:00 0.1 l/m2 in 12 Std. Schnee, Niederschlag
Sa, 15.02. 1:00 0.1 l/m2 in 6 Std. Schnee, Niederschlag
Ortszeit Niederschlagsmenge Niederschlagsart
So, 16.02. 21:00 0.0 l/m2 in 1 Std. -
So, 16.02. 20:50 keine Meldung -
So, 16.02. 20:40 keine Meldung -
So, 16.02. 20:30 0.0 l/m2 in 1 Std. -
So, 16.02. 20:20 keine Meldung -
So, 16.02. 20:10 keine Meldung -
So, 16.02. 20:00 0.0 l/m2 in 1 Std. -
So, 16.02. 19:30 0.0 l/m2 in 1 Std. -
So, 16.02. 19:00 0.0 l/m2 in 1 Std. -
So, 16.02. 18:30 0.0 l/m2 in 1 Std. -
So, 16.02. 18:00 0.0 l/m2 in 1 Std. -
Ortszeit Stärke Spitze Richtung
km/h Bft. km/h Grad Sektor
So, 16.02. 19:00 36 5 61 190° S
So, 16.02. 13:00 44 6 61 220° SW
So, 16.02. 7:00 29 5 61 200° S
So, 16.02. 1:00 50 7 58 230° SW
Sa, 15.02. 19:00 40 6 50 190° S
Sa, 15.02. 13:00 4 1 22 280° W
Sa, 15.02. 7:00 15 3 52 230° SW
Sa, 15.02. 1:00 32 5 61 280° W
Ortszeit Stärke Spitze Richtung
km/h Bft. km/h Grad Sektor
So, 16.02. 21:00 33 5 54 200° S
So, 16.02. 20:50 33 5 - 200° S
So, 16.02. 20:40 31 5 - 200° S
So, 16.02. 20:30 33 5 50 200° S
So, 16.02. 20:20 33 5 - 200° S
So, 16.02. 20:10 33 5 - 190° S
So, 16.02. 20:00 36 5 54 190° S
So, 16.02. 19:30 35 5 52 190° S
So, 16.02. 19:00 36 5 54 190° S
So, 16.02. 18:30 36 5 54 190° S
So, 16.02. 18:00 36 5 50 190° S
Ortszeit Untergrenze Bedeckung Gattung
total tief tief mittel hoch
So, 16.02. 19:00 1800 m 8/8 7/8 - - -
So, 16.02. 13:00 3900 m 8/8 8/8 - - -
So, 16.02. 7:00 6600 m 8/8 6/8 - - -
So, 16.02. 1:00 5100 m 8/8 8/8 - - -
Sa, 15.02. 19:00 5400 m 8/8 8/8 - - -
Sa, 15.02. 13:00 4200 m 8/8 8/8 - - -
Sa, 15.02. 7:00 <30 m 7/8 0/8 - - -
Sa, 15.02. 1:00 <30 m 8/8 0/8 - - -
Ortszeit Bedeckungsgrad in Achtel und Wolkenuntergrenze
So, 16.02. 21:00 7(1800m) 7(6000m) 8(10500m)
So, 16.02. 20:50 7(1800m) 7(6000m) 8(10500m)
So, 16.02. 20:40 5(1800m) 8(8400m) 8(10500m)
So, 16.02. 20:30 1(2100m) 8(8400m) 8(10500m)
So, 16.02. 20:20 1(2100m) 8(8400m) 8(10500m)
So, 16.02. 20:10 3(2100m) 8(8400m) 8(9000m)
So, 16.02. 20:00 4(2100m) 8(8100m) 8(10500m)
So, 16.02. 19:30 1(1800m) 8(10500m) 8(10500m)
So, 16.02. 19:00 7(1800m) 8(8700m) 8(10500m)
So, 16.02. 18:30 8(1800m) 8(10500m)
So, 16.02. 18:00 8(1800m)
Ortszeit Stationsdruck (hPa) Tendenz (hPa in 3 Std.)
So, 16.02. 19:00 855 - 0,8
So, 16.02. 13:00 856 - 0,6
So, 16.02. 7:00 857 + 0,4
So, 16.02. 1:00 857 - 0,4
Sa, 15.02. 19:00 858 - 0,5
Sa, 15.02. 13:00 859 - 0,2
Sa, 15.02. 7:00 859 - 0,6
Sa, 15.02. 1:00 860 + 0,9
Ortszeit Stationsdruck (hPa) Tendenz (hPa in 3 Std.)
So, 16.02. 21:00 854 - 0,5
So, 16.02. 20:50 854 keine Meldung
So, 16.02. 20:40 855 keine Meldung
So, 16.02. 20:30 855 - 0,5
So, 16.02. 20:20 855 keine Meldung
So, 16.02. 20:10 855 keine Meldung
So, 16.02. 20:00 855 - 0,5
So, 16.02. 19:30 855 - 0,8
So, 16.02. 19:00 855 - 0,8
So, 16.02. 18:30 855 - 0,8
So, 16.02. 18:00 855 - 0,6
Ortszeit Schneehöhe (cm)
So, 16.02. 19:00 80
So, 16.02. 13:00 82
So, 16.02. 7:00 83
So, 16.02. 1:00 84
Sa, 15.02. 19:00 84
Sa, 15.02. 13:00 85
Sa, 15.02. 7:00 85
Sa, 15.02. 1:00 86
Ortszeit Schneehöhe (cm)
So, 16.02. 21:00 80
So, 16.02. 20:50 80
So, 16.02. 20:40 80
So, 16.02. 20:30 80
So, 16.02. 20:20 80
So, 16.02. 20:10 80
So, 16.02. 20:00 80
So, 16.02. 19:30 80
So, 16.02. 19:00 80
So, 16.02. 18:30 80
So, 16.02. 18:00 81
Link zu dieser Seite / Seite empfehlen

Das Wetter in ...